Time;durP1;ratioP1;P1;durP2;ratioP2;P2;SDS_P1;SDS_P2;PMS_P1;PMS_P2;Temp;Humidity;BMP_temperature;BMP_pressure;BME280_temperature;BME280_humidity;BME280_pressure;Samples;Min_cycle;Max_cycle;Signal;HPM_P1;HPM_P2
2022/10/23 00:01:16;;;;;;;7.68;4.18;;;9.90;99.90;;;;;;4995493;28;20070;-70
2022/10/23 00:03:42;;;;;;;7.22;4.00;;;9.90;99.90;;;;;;4995939;28;20030;-71
2022/10/23 00:06:08;;;;;;;6.75;3.40;;;9.80;99.90;;;;;;4995483;28;20065;-71
2022/10/23 00:08:34;;;;;;;10.35;4.55;;;9.80;99.90;;;;;;4995902;28;20038;-71
2022/10/23 00:10:59;;;;;;;8.20;4.20;;;9.80;99.90;;;;;;4977893;28;20027;-71
2022/10/23 00:13:25;;;;;;;8.63;4.05;;;9.80;99.90;;;;;;4997698;28;20023;-71
2022/10/23 00:15:51;;;;;;;8.18;4.22;;;9.80;99.90;;;;;;5000085;28;20105;-71
2022/10/23 00:18:16;;;;;;;7.30;4.10;;;9.80;99.90;;;;;;4999808;28;20102;-71
2022/10/23 00:20:42;;;;;;;7.13;4.18;;;9.80;99.90;;;;;;5000051;28;20113;-72
2022/10/23 00:23:07;;;;;;;6.28;4.10;;;9.80;99.90;;;;;;4982191;28;20090;-71
2022/10/23 00:25:33;;;;;;;9.77;4.03;;;9.70;99.90;;;;;;4999506;28;20037;-71
2022/10/23 00:27:59;;;;;;;7.78;4.07;;;9.70;99.90;;;;;;4981816;28;20486;-71
2022/10/23 00:30:24;;;;;;;6.82;4.38;;;9.70;99.90;;;;;;4998788;28;20442;-71
2022/10/23 00:32:50;;;;;;;7.03;4.50;;;9.60;99.90;;;;;;4998789;28;20085;-71
2022/10/23 00:35:16;;;;;;;7.75;4.47;;;9.60;99.90;;;;;;4999236;28;20527;-71
2022/10/23 00:37:41;;;;;;;7.63;4.10;;;9.60;99.90;;;;;;4982056;28;20120;-71
2022/10/23 00:40:08;;;;;;;8.13;4.35;;;9.60;99.90;;;;;;5000535;28;20037;-71
2022/10/23 00:42:33;;;;;;;11.52;4.60;;;9.60;99.90;;;;;;5000550;28;20061;-71
2022/10/23 00:45:17;;;;;;;6.18;4.32;;;9.60;99.90;;;;;;5001262;28;20022;-71
2022/10/23 00:47:43;;;;;;;9.43;4.00;;;9.60;99.90;;;;;;5002003;28;20034;-71
2022/10/23 00:50:09;;;;;;;11.65;4.85;;;9.50;99.90;;;;;;5001605;28;20034;-71
2022/10/23 00:52:40;;;;;;;6.07;3.88;;;9.50;99.90;;;;;;5001470;28;20034;-72
2022/10/23 00:55:06;;;;;;;10.45;4.88;;;9.50;99.90;;;;;;5001209;28;20026;-71
2022/10/23 00:57:32;;;;;;;7.25;4.07;;;9.50;99.90;;;;;;4982533;28;20045;-72
2022/10/23 00:59:57;;;;;;;13.48;3.88;;;9.40;99.90;;;;;;5000237;28;20030;-72
2022/10/23 01:02:23;;;;;;;10.82;4.20;;;9.40;99.90;;;;;;4999863;28;20030;-72
2022/10/23 01:04:48;;;;;;;7.55;4.38;;;9.40;99.90;;;;;;5000588;28;20035;-71
2022/10/23 01:07:21;;;;;;;6.88;4.18;;;9.40;99.90;;;;;;4999825;28;20084;-71
2022/10/23 01:10:12;;;;;;;7.38;4.30;;;9.30;99.90;;;;;;5000453;28;20022;-71
2022/10/23 01:12:45;;;;;;;8.23;4.25;;;9.30;99.90;;;;;;4999275;28;20097;-71
2022/10/23 01:15:24;;;;;;;6.88;4.32;;;9.30;99.90;;;;;;4981684;28;20033;-71
2022/10/23 01:18:01;;;;;;;6.65;4.00;;;9.30;99.90;;;;;;4998900;28;20038;-71
2022/10/23 01:20:42;;;;;;;8.40;3.90;;;9.30;99.90;;;;;;4998577;28;20455;-71
2022/10/23 01:23:46;;;;;;;9.50;4.38;;;9.30;99.90;;;;;;4999166;28;20534;-71
2022/10/23 01:26:33;;;;;;;5.57;4.00;;;9.20;99.90;;;;;;4998585;28;20023;-71
2022/10/23 01:29:37;;;;;;;5.80;4.10;;;9.20;99.90;;;;;;4981053;28;20037;-72
2022/10/23 01:32:10;;;;;;;10.73;3.90;;;9.20;99.90;;;;;;4980604;28;20427;-71
2022/10/23 01:34:38;;;;;;;10.80;3.97;;;9.20;99.90;;;;;;4980213;28;20493;-71
2022/10/23 01:37:07;;;;;;;5.40;3.92;;;9.20;99.90;;;;;;4997570;28;20470;-72
2022/10/23 01:39:42;;;;;;;7.35;3.92;;;9.10;99.90;;;;;;4997201;28;20442;-71
2022/10/23 01:42:45;;;;;;;8.60;4.20;;;9.10;99.90;;;;;;4979585;28;20058;-71
2022/10/23 01:45:37;;;;;;;6.97;4.35;;;9.20;99.90;;;;;;4979716;28;20374;-71
2022/10/23 01:48:06;;;;;;;8.10;3.78;;;9.10;99.90;;;;;;4979217;28;20041;-71
2022/10/23 01:50:33;;;;;;;5.88;2.83;;;9.10;99.90;;;;;;4980275;28;20026;-71
2022/10/23 01:52:59;;;;;;;5.57;3.63;;;9.10;99.90;;;;;;4979554;28;20038;-72
2022/10/23 01:55:25;;;;;;;6.47;3.60;;;9.10;99.90;;;;;;4979533;28;20034;-72
2022/10/23 01:57:53;;;;;;;7.15;3.63;;;9.00;99.90;;;;;;4978956;28;20030;-72
2022/10/23 02:00:19;;;;;;;6.82;3.70;;;9.00;99.90;;;;;;4997269;28;20026;-71
2022/10/23 02:02:47;;;;;;;7.13;4.20;;;9.00;99.90;;;;;;4979232;28;20038;-72
2022/10/23 02:06:01;;;;;;;13.75;4.32;;;8.90;99.90;;;;;;4996955;28;20050;-71
2022/10/23 02:08:27;;;;;;;6.82;3.63;;;8.90;99.90;;;;;;4972451;28;20490;-71
2022/10/23 02:10:52;;;;;;;9.85;3.78;;;8.90;99.90;;;;;;4996360;28;20025;-71
2022/10/23 02:17:16;;;;;;;5.18;3.47;;;8.80;99.90;;;;;;4995738;28;20080;-71
2022/10/23 02:23:32;;;;;;;4.53;3.05;;;8.90;99.90;;;;;;4971873;28;20030;-71
2022/10/23 02:26:26;;;;;;;4.93;3.13;;;8.80;99.90;;;;;;4995870;28;20118;-71
2022/10/23 02:29:03;;;;;;;6.82;3.70;;;8.80;99.90;;;;;;4995776;28;20038;-72
2022/10/23 02:31:29;;;;;;;4.80;3.30;;;8.80;99.90;;;;;;4995653;28;20030;-72
2022/10/23 02:33:55;;;;;;;5.82;3.40;;;8.80;99.90;;;;;;4995784;28;20022;-72
2022/10/23 02:36:21;;;;;;;3.33;2.78;;;8.90;99.90;;;;;;4995867;28;20032;-71
2022/10/23 02:38:46;;;;;;;6.80;3.15;;;8.80;99.90;;;;;;4978151;28;20022;-72
2022/10/23 02:41:45;;;;;;;5.80;2.80;;;8.80;99.90;;;;;;4995537;28;20085;-72
2022/10/23 02:44:30;;;;;;;4.07;2.90;;;8.70;99.90;;;;;;4958798;28;20042;-71
2022/10/23 02:47:18;;;;;;;3.88;2.72;;;8.50;99.90;;;;;;4958714;28;20031;-71
2022/10/23 02:49:53;;;;;;;3.67;2.67;;;8.50;99.90;;;;;;4975607;28;20042;-72
2022/10/23 02:53:12;;;;;;;4.35;2.60;;;8.50;99.90;;;;;;4976005;28;20109;-71
2022/10/23 02:55:41;;;;;;;3.72;2.10;;;8.40;99.90;;;;;;4954569;28;20089;-73
2022/10/23 02:58:32;;;;;;;3.15;2.80;;;8.30;99.90;;;;;;4975509;28;20368;-71
2022/10/23 03:01:09;;;;;;;4.95;2.53;;;8.30;99.90;;;;;;4958093;28;20042;-72
2022/10/23 03:04:00;;;;;;;6.05;3.15;;;8.20;99.90;;;;;;4975127;28;20093;-72
2022/10/23 03:07:02;;;;;;;4.75;2.90;;;8.20;99.90;;;;;;4952981;28;20085;-72
2022/10/23 03:09:28;;;;;;;5.47;2.83;;;8.10;99.90;;;;;;4977677;28;20059;-72
2022/10/23 03:11:54;;;;;;;5.80;4.43;;;8.10;99.90;;;;;;4978494;28;20058;-72
2022/10/23 03:14:36;;;;;;;6.35;4.15;;;8.10;99.90;;;;;;4977443;28;20037;-72
2022/10/23 03:20:25;;;;;;;6.97;3.25;;;8.00;99.90;;;;;;4977598;28;20030;-72
2022/10/23 03:23:33;;;;;;;4.55;3.00;;;7.90;99.90;;;;;;4977074;28;20035;-72
2022/10/23 03:25:58;;;;;;;5.03;3.03;;;7.80;99.90;;;;;;4977120;28;20030;-71
2022/10/23 03:28:24;;;;;;;6.97;3.05;;;7.80;99.90;;;;;;4977207;28;20375;-71
2022/10/23 03:30:52;;;;;;;5.32;3.22;;;7.70;99.90;;;;;;4958736;28;20026;-71
2022/10/23 03:40:28;;;;;;;6.68;2.45;;;7.70;99.90;;;;;;4976934;28;20039;-71
2022/10/23 03:46:23;;;;;;;9.07;2.90;;;7.60;99.90;;;;;;4995193;28;20434;-71
2022/10/23 03:49:07;;;;;;;3.78;2.97;;;7.60;99.90;;;;;;4999496;28;20034;-71
2022/10/23 03:51:40;;;;;;;5.28;3.05;;;7.60;99.90;;;;;;5000016;28;20035;-71
2022/10/23 03:55:00;;;;;;;5.82;3.40;;;7.50;99.90;;;;;;4999427;28;20042;-72
2022/10/23 03:57:25;;;;;;;16.48;3.45;;;7.50;99.90;;;;;;4999448;28;20447;-71
2022/10/23 03:59:51;;;;;;;3.80;3.15;;;7.50;99.90;;;;;;4999446;28;20105;-71
2022/10/23 04:03:17;;;;;;;4.28;2.85;;;7.50;99.90;;;;;;4998988;28;20019;-71
2022/10/23 04:09:08;;;;;;;3.95;2.42;;;7.40;99.90;;;;;;4998548;28;20041;-71
2022/10/23 04:11:34;;;;;;;6.97;2.95;;;7.40;99.90;;;;;;4998467;28;20034;-71
2022/10/23 04:13:59;;;;;;;4.50;3.17;;;7.40;99.90;;;;;;4999043;28;20523;-72
2022/10/23 04:16:37;;;;;;;9.05;2.67;;;7.30;99.90;;;;;;4999103;28;20493;-71
2022/10/23 04:19:11;;;;;;;5.65;2.70;;;7.30;99.90;;;;;;4998381;28;20025;-71
2022/10/23 04:21:36;;;;;;;6.18;2.88;;;7.30;99.90;;;;;;4998563;28;20161;-71
2022/10/23 04:24:02;;;;;;;9.02;2.95;;;7.30;99.90;;;;;;4981086;28;20073;-71
2022/10/23 04:26:28;;;;;;;7.38;3.08;;;7.20;99.90;;;;;;4998617;28;20026;-71
2022/10/23 04:29:32;;;;;;;6.45;3.00;;;7.20;99.90;;;;;;4998522;28;20030;-71
2022/10/23 04:31:58;;;;;;;6.72;3.22;;;7.10;99.90;;;;;;4981515;28;20034;-71
2022/10/23 04:34:23;;;;;;;5.18;2.97;;;7.10;99.90;;;;;;4998292;28;20029;-71
2022/10/23 04:36:49;;;;;;;8.45;4.18;;;7.10;99.90;;;;;;4980974;28;20039;-72
2022/10/23 04:39:14;;;;;;;6.50;3.22;;;7.00;99.90;;;;;;4997858;28;20117;-71
2022/10/23 04:41:40;;;;;;;4.40;3.28;;;7.00;99.90;;;;;;4980960;28;20026;-71
2022/10/23 04:44:30;;;;;;;4.97;2.83;;;7.00;99.90;;;;;;4998258;28;20034;-71
2022/10/23 04:47:14;;;;;;;5.10;3.70;;;6.90;99.90;;;;;;4998414;28;20133;-72
2022/10/23 04:49:40;;;;;;;6.47;3.10;;;7.00;99.90;;;;;;4997681;28;20087;-72
2022/10/23 04:52:05;;;;;;;6.05;3.78;;;7.00;99.90;;;;;;4981879;28;20458;-71
2022/10/23 04:54:38;;;;;;;8.68;3.22;;;7.00;99.90;;;;;;4998820;28;20057;-72
2022/10/23 04:57:04;;;;;;;3.45;2.88;;;6.90;99.90;;;;;;4998906;28;20022;-71
2022/10/23 04:59:33;;;;;;;6.68;3.15;;;6.90;99.90;;;;;;4997977;28;20041;-71
2022/10/23 05:05:27;;;;;;;6.70;3.80;;;6.90;99.90;;;;;;4998262;28;20030;-71
2022/10/23 05:11:15;;;;;;;8.95;3.38;;;6.80;99.90;;;;;;4997916;28;20374;-72
2022/10/23 05:13:40;;;;;;;5.57;3.40;;;6.80;99.90;;;;;;4998375;28;20034;-72
2022/10/23 05:16:06;;;;;;;6.22;3.03;;;6.80;99.90;;;;;;4998926;28;20026;-72
2022/10/23 05:18:41;;;;;;;7.80;3.40;;;6.70;99.90;;;;;;4980030;28;20033;-72
2022/10/23 05:24:34;;;;;;;8.55;3.33;;;6.70;99.90;;;;;;4919683;29;20051;-72
2022/10/23 05:27:00;;;;;;;8.45;3.67;;;6.70;99.90;;;;;;4918525;29;20032;-70
2022/10/23 05:29:26;;;;;;;13.25;4.40;;;6.70;99.90;;;;;;4982907;28;20042;-74
2022/10/23 05:31:55;;;;;;;5.70;3.13;;;6.70;99.90;;;;;;4982268;28;20027;-75
2022/10/23 05:34:24;;;;;;;6.95;4.03;;;6.60;99.90;;;;;;5000662;28;20054;-75
2022/10/23 05:36:50;;;;;;;7.63;3.75;;;6.70;99.90;;;;;;4984397;28;20027;-75
2022/10/23 05:39:15;;;;;;;11.75;4.00;;;6.70;99.90;;;;;;4983179;28;20133;-75
2022/10/23 05:41:41;;;;;;;11.05;4.88;;;6.60;99.90;;;;;;5001183;28;20026;-76
2022/10/23 05:44:07;;;;;;;6.75;3.97;;;6.60;99.90;;;;;;5001227;28;20029;-72
2022/10/23 05:46:32;;;;;;;10.13;3.95;;;6.60;99.90;;;;;;4983717;28;20046;-74
2022/10/23 05:48:58;;;;;;;8.90;3.90;;;6.60;99.90;;;;;;4984940;28;20034;-73
2022/10/23 05:51:23;;;;;;;7.05;4.35;;;6.70;99.90;;;;;;4984189;28;20516;-72
2022/10/23 05:53:50;;;;;;;11.82;4.68;;;6.70;99.90;;;;;;5000792;28;20082;-77
2022/10/23 05:56:15;;;;;;;11.52;4.43;;;6.80;99.90;;;;;;5001913;28;20084;-79
2022/10/23 05:58:41;;;;;;;9.05;4.53;;;6.80;99.90;;;;;;4985030;28;20026;-77
2022/10/23 06:01:09;;;;;;;5.15;3.70;;;6.90;99.90;;;;;;5001031;28;20084;-80
2022/10/23 06:03:36;;;;;;;8.77;4.15;;;6.90;99.90;;;;;;4982237;28;20033;-77
2022/10/23 06:06:02;;;;;;;7.35;4.10;;;7.00;99.90;;;;;;4982524;28;20026;-74
2022/10/23 06:08:29;;;;;;;7.07;4.10;;;7.00;99.90;;;;;;4999565;28;20418;-73
2022/10/23 06:10:54;;;;;;;7.25;4.10;;;7.00;99.90;;;;;;4998507;28;20034;-73
2022/10/23 06:13:20;;;;;;;7.13;3.63;;;7.10;99.90;;;;;;4999614;28;20081;-73
2022/10/23 06:15:46;;;;;;;8.18;4.30;;;7.10;99.90;;;;;;4998791;28;20070;-73
2022/10/23 06:18:11;;;;;;;10.23;4.63;;;7.10;99.90;;;;;;4996879;28;20026;-59
2022/10/23 06:20:38;;;;;;;6.90;4.63;;;7.10;99.90;;;;;;4995839;28;20030;-59
2022/10/23 06:23:04;;;;;;;9.93;4.72;;;7.10;99.90;;;;;;5000358;28;20026;-75
2022/10/23 06:25:31;;;;;;;6.93;4.57;;;7.20;99.90;;;;;;4983471;28;20096;-75
2022/10/23 06:27:56;;;;;;;9.13;4.10;;;7.20;99.90;;;;;;5000686;28;20117;-75
2022/10/23 06:30:22;;;;;;;8.05;3.30;;;7.20;99.90;;;;;;4983671;28;20065;-76
2022/10/23 06:32:49;;;;;;;7.20;3.80;;;7.30;99.90;;;;;;4984157;28;20030;-77
2022/10/23 06:35:15;;;;;;;4.88;3.90;;;7.40;99.90;;;;;;4983908;28;20061;-78
2022/10/23 06:37:40;;;;;;;8.63;4.45;;;7.50;99.90;;;;;;4983744;28;20030;-80
2022/10/23 06:40:07;;;;;;;6.85;3.50;;;7.60;99.90;;;;;;5004046;28;20429;-79
2022/10/23 06:42:33;;;;;;;11.05;4.70;;;7.90;99.90;;;;;;5006154;28;20030;-79
2022/10/23 06:44:59;;;;;;;7.80;4.30;;;8.10;99.90;;;;;;4984911;28;20113;-77
2022/10/23 06:47:25;;;;;;;9.52;3.92;;;8.30;99.90;;;;;;5002110;28;20565;-75
2022/10/23 06:49:50;;;;;;;6.53;3.63;;;8.50;99.90;;;;;;4984015;28;20056;-77
2022/10/23 06:52:16;;;;;;;6.28;4.28;;;8.60;99.90;;;;;;4983380;28;20026;-75
2022/10/23 06:54:42;;;;;;;10.20;5.65;;;8.80;99.90;;;;;;4999565;28;20022;-76
2022/10/23 06:57:08;;;;;;;8.65;5.90;;;9.00;99.90;;;;;;4998654;28;20080;-81
2022/10/23 06:59:33;;;;;;;7.25;4.30;;;9.20;99.90;;;;;;4980812;28;20386;-81
2022/10/23 07:01:59;;;;;;;5.28;3.67;;;9.40;99.90;;;;;;5001462;28;20027;-76
2022/10/23 07:04:24;;;;;;;7.85;4.45;;;9.40;99.90;;;;;;4983125;28;20029;-77
2022/10/23 07:06:50;;;;;;;6.32;3.67;;;9.60;99.90;;;;;;4982683;28;20027;-76
2022/10/23 07:09:16;;;;;;;4.70;3.60;;;9.90;99.90;;;;;;4983312;28;20034;-78
2022/10/23 07:11:42;;;;;;;5.25;3.55;;;10.20;99.90;;;;;;5000938;28;20088;-77
2022/10/23 07:14:07;;;;;;;5.45;4.13;;;10.40;99.90;;;;;;4983988;28;20064;-81
2022/10/23 07:16:33;;;;;;;3.97;3.38;;;10.80;99.90;;;;;;4980300;28;20160;-76
2022/10/23 07:19:00;;;;;;;8.30;4.43;;;11.20;99.90;;;;;;4995107;28;20093;-57
2022/10/23 07:21:30;;;;;;;4.68;3.47;;;11.60;99.90;;;;;;4994196;28;20034;-58
2022/10/23 07:23:57;;;;;;;5.07;3.95;;;11.90;99.90;;;;;;4994423;28;20109;-57
2022/10/23 07:26:23;;;;;;;5.78;3.53;;;12.30;99.90;;;;;;4994560;28;20026;-57
2022/10/23 07:28:54;;;;;;;12.55;4.20;;;12.60;99.90;;;;;;4994476;28;20113;-77
2022/10/23 07:31:24;;;;;;;8.38;4.10;;;12.90;99.90;;;;;;4978055;28;20348;-79
2022/10/23 07:33:50;;;;;;;4.05;3.55;;;13.30;99.90;;;;;;4994906;28;20030;-83
2022/10/23 07:36:17;;;;;;;3.45;3.03;;;13.60;99.90;;;;;;4994843;28;20514;-78
2022/10/23 07:38:42;;;;;;;3.50;3.20;;;14.00;99.90;;;;;;4995055;28;20422;-80
2022/10/23 07:41:09;;;;;;;3.25;2.95;;;14.50;99.90;;;;;;4994784;28;20029;-79
2022/10/23 07:43:35;;;;;;;6.28;3.33;;;14.90;99.90;;;;;;4977108;28;20022;-81
2022/10/23 07:46:01;;;;;;;8.65;4.20;;;15.20;99.90;;;;;;4994613;28;20056;-86
2022/10/23 07:48:28;;;;;;;5.82;3.83;;;15.40;99.90;;;;;;4994467;28;20510;-80
2022/10/23 07:50:59;;;;;;;5.72;4.65;;;15.60;99.90;;;;;;4976929;28;20037;-77
2022/10/23 07:53:25;;;;;;;7.20;5.55;;;15.80;99.90;;;;;;4977504;28;20066;-88
2022/10/23 07:55:52;;;;;;;5.95;5.38;;;15.90;99.90;;;;;;4977880;28;20026;-85
2022/10/23 07:58:18;;;;;;;8.60;6.53;;;15.80;99.90;;;;;;4977392;28;20408;-82
2022/10/23 08:00:44;;;;;;;9.07;6.00;;;16.10;99.90;;;;;;4976832;28;20026;-78
2022/10/23 08:03:11;;;;;;;6.63;5.45;;;16.40;99.90;;;;;;4977391;28;20030;-80
2022/10/23 08:05:37;;;;;;;6.40;5.32;;;16.70;99.90;;;;;;4977481;28;20035;-80
2022/10/23 08:08:03;;;;;;;8.20;5.20;;;16.90;99.90;;;;;;4994533;28;20087;-79
2022/10/23 08:10:28;;;;;;;9.65;5.25;;;17.10;99.90;;;;;;4994618;28;20041;-76
2022/10/23 08:12:54;;;;;;;5.45;4.75;;;17.20;99.90;;;;;;4993957;28;20030;-78
2022/10/23 08:15:20;;;;;;;6.80;5.85;;;17.30;99.90;;;;;;4994164;28;20030;-72
2022/10/23 08:17:45;;;;;;;6.72;4.50;;;17.40;99.90;;;;;;4994029;28;20386;-74
2022/10/23 08:20:12;;;;;;;9.02;4.80;;;17.60;99.90;;;;;;4994248;28;20374;-79
2022/10/23 08:22:38;;;;;;;6.57;4.78;;;17.80;99.90;;;;;;4993960;28;20023;-73
2022/10/23 08:25:04;;;;;;;7.95;4.25;;;18.20;99.90;;;;;;4994051;28;20062;-75
2022/10/23 08:27:30;;;;;;;5.22;3.55;;;18.60;99.90;;;;;;4993936;28;20065;-75
2022/10/23 08:29:56;;;;;;;5.05;3.42;;;18.90;99.90;;;;;;4994251;28;20045;-77
2022/10/23 08:32:21;;;;;;;5.82;3.10;;;19.00;99.90;;;;;;4993889;28;20022;-75
2022/10/23 08:34:47;;;;;;;5.38;2.60;;;18.80;99.90;;;;;;4996584;28;20027;-74
2022/10/23 08:37:13;;;;;;;4.07;2.38;;;18.60;99.90;;;;;;4997612;28;20034;-73
2022/10/23 08:39:38;;;;;;;3.97;2.40;;;18.70;99.90;;;;;;4997891;28;20121;-77
2022/10/23 08:42:04;;;;;;;35.75;5.57;;;19.00;99.90;;;;;;4997896;28;20438;-81
2022/10/23 08:44:51;;;;;;;4.57;2.65;;;19.20;99.90;;;;;;4997612;28;20069;-76
2022/10/23 08:47:22;;;;;;;5.82;2.92;;;19.40;99.90;;;;;;4997152;28;20039;-78
2022/10/23 08:49:56;;;;;;;3.50;2.85;;;19.90;98.30;;;;;;4980056;28;20065;-78
2022/10/23 08:52:45;;;;;;;4.50;2.72;;;20.20;97.30;;;;;;4980362;28;20095;-78
2022/10/23 08:55:14;;;;;;;3.70;2.80;;;20.60;95.90;;;;;;4997542;28;20112;-74
2022/10/23 08:58:06;;;;;;;;;;;20.80;94.50;;;;;;4980237;28;20478;-74
2022/10/23 09:00:33;;;;;;;4.63;2.53;;;21.00;93.40;;;;;;4975989;28;19913;-76
2022/10/23 09:03:02;;;;;;;2.45;2.22;;;21.10;92.40;;;;;;4979690;28;20030;-79
2022/10/23 09:05:35;;;;;;;4.40;2.80;;;21.10;92.00;;;;;;4979848;28;20494;-78
2022/10/23 09:08:28;;;;;;;2.65;2.35;;;21.60;91.10;;;;;;4996923;28;20042;-79
2022/10/23 09:11:22;;;;;;;3.28;2.28;;;21.60;90.20;;;;;;4980387;28;20358;-79
2022/10/23 09:13:53;;;;;;;4.38;2.28;;;21.20;90.00;;;;;;4979319;28;20026;-78
2022/10/23 09:16:34;;;;;;;2.72;2.28;;;21.40;90.90;;;;;;4996670;28;20073;-79
2022/10/23 09:19:00;;;;;;;2.40;2.10;;;21.80;89.50;;;;;;4996822;28;20089;-77
2022/10/23 09:21:29;;;;;;;3.35;2.28;;;22.20;87.10;;;;;;4979376;28;20030;-78
2022/10/23 09:23:55;;;;;;;5.35;2.40;;;22.40;84.90;;;;;;4979413;28;20443;-77
2022/10/23 09:26:21;;;;;;;4.97;2.75;;;22.80;84.70;;;;;;4979547;28;20030;-77
2022/10/23 09:28:56;;;;;;;2.47;2.20;;;22.80;83.00;;;;;;4996568;28;20530;-77
2022/10/23 09:31:21;;;;;;;2.00;1.80;;;23.10;81.40;;;;;;4996954;28;20378;-77
2022/10/23 09:34:00;;;;;;;2.63;1.88;;;23.00;79.90;;;;;;4996863;28;20102;-77
2022/10/23 09:36:28;;;;;;;;;;;22.90;79.90;;;;;;4996657;28;20364;-77
2022/10/23 09:38:57;;;;;;;3.08;1.95;;;23.20;79.20;;;;;;4979614;28;19906;-77
2022/10/23 09:41:38;;;;;;;3.50;2.05;;;23.60;78.10;;;;;;4978599;28;20031;-77
2022/10/23 09:44:07;;;;;;;3.47;2.20;;;23.60;76.50;;;;;;4996954;28;20061;-77
2022/10/23 09:47:04;;;;;;;2.30;2.10;;;23.60;76.90;;;;;;4995742;28;20475;-77
2022/10/23 09:49:33;;;;;;;4.50;2.08;;;23.70;75.30;;;;;;4980370;28;20046;-77
2022/10/23 09:52:11;;;;;;;2.25;2.08;;;24.00;74.90;;;;;;4978449;28;20030;-77
2022/10/23 09:54:47;;;;;;;1.73;1.63;;;23.70;74.10;;;;;;4978701;28;20034;-77
2022/10/23 09:57:41;;;;;;;2.67;1.80;;;23.10;75.20;;;;;;4996241;28;20105;-77
2022/10/23 10:00:13;;;;;;;3.22;2.22;;;22.40;76.20;;;;;;4978723;28;20450;-78
2022/10/23 10:02:40;;;;;;;1.92;1.73;;;21.90;79.10;;;;;;4996063;28;20034;-77
2022/10/23 10:05:24;;;;;;;3.97;2.33;;;21.70;79.60;;;;;;4996236;28;20041;-78
2022/10/23 10:08:30;;;;;;;4.25;3.85;;;21.90;80.70;;;;;;4978274;28;20539;-77
2022/10/23 10:10:58;;;;;;;5.65;4.30;;;22.50;79.80;;;;;;4976947;28;20410;-77
2022/10/23 10:13:30;;;;;;;6.10;5.50;;;23.20;78.20;;;;;;4995561;28;20359;-78
2022/10/23 10:16:10;;;;;;;6.78;6.13;;;23.30;76.20;;;;;;4995903;28;20139;-77
2022/10/23 10:18:49;;;;;;;7.32;6.63;;;23.00;76.20;;;;;;4978340;28;20039;-77
2022/10/23 10:21:22;;;;;;;7.50;6.80;;;23.10;75.40;;;;;;4995628;28;20383;-78
2022/10/23 10:24:11;;;;;;;14.75;7.68;;;23.00;75.40;;;;;;4995049;28;20022;-77
2022/10/23 10:26:51;;;;;;;10.02;8.93;;;23.30;75.80;;;;;;4978437;28;20450;-77
2022/10/23 10:29:22;;;;;;;10.90;9.45;;;23.60;74.50;;;;;;4978276;28;20090;-77
2022/10/23 10:32:17;;;;;;;12.80;9.68;;;23.60;74.20;;;;;;4995612;28;20026;-78
2022/10/23 10:34:54;;;;;;;12.10;10.05;;;23.40;74.60;;;;;;4995428;28;20030;-78
2022/10/23 10:37:41;;;;;;;14.13;11.43;;;23.90;73.80;;;;;;4995410;28;20033;-77
2022/10/23 10:40:22;;;;;;;17.77;12.15;;;24.20;72.10;;;;;;4977771;28;20058;-77
2022/10/23 10:43:13;;;;;;;17.88;12.02;;;24.30;70.90;;;;;;4995056;28;20022;-78
2022/10/23 10:45:58;;;;;;;14.07;11.57;;;23.90;71.40;;;;;;4974311;28;20449;-69
2022/10/23 10:48:55;;;;;;;12.38;10.45;;;24.00;72.20;;;;;;4975897;28;20439;-63
2022/10/23 10:51:29;;;;;;;15.43;11.82;;;23.60;73.20;;;;;;4974478;28;20118;-64
2022/10/23 10:54:29;;;;;;;13.32;9.77;;;23.30;73.60;;;;;;4975811;28;20035;-63
2022/10/23 10:56:59;;;;;;;12.27;10.48;;;22.90;75.30;;;;;;4975814;28;20027;-62
2022/10/23 10:59:29;;;;;;;14.75;11.13;;;23.10;75.30;;;;;;4974252;28;20069;-63
2022/10/23 11:02:17;;;;;;;12.13;10.40;;;23.30;74.70;;;;;;4974258;28;20467;-63
2022/10/23 11:04:50;;;;;;;12.27;10.27;;;23.60;73.80;;;;;;4975830;28;20383;-77
2022/10/23 11:07:21;;;;;;;13.25;10.82;;;24.00;72.90;;;;;;4975601;28;20034;-78
2022/10/23 11:09:47;;;;;;;11.70;9.90;;;24.40;70.80;;;;;;4975396;28;20046;-78
2022/10/23 11:12:19;;;;;;;11.45;9.85;;;24.60;70.10;;;;;;4974269;28;20395;-77
2022/10/23 11:14:45;;;;;;;10.15;8.70;;;24.10;70.80;;;;;;4974051;28;20077;-78
2022/10/23 11:17:20;;;;;;;23.60;10.00;;;24.20;70.30;;;;;;4974145;28;20027;-77
2022/10/23 11:20:03;;;;;;;10.25;9.20;;;24.90;68.70;;;;;;4975498;28;20038;-76
2022/10/23 11:22:41;;;;;;;11.13;10.02;;;25.00;66.90;;;;;;4975589;28;20097;-76
2022/10/23 11:25:21;;;;;;;9.48;7.78;;;24.60;67.50;;;;;;4973964;28;20037;-78
2022/10/23 11:28:19;;;;;;;6.25;5.65;;;23.90;68.70;;;;;;4973862;28;20034;-75
2022/10/23 11:31:11;;;;;;;7.03;6.10;;;23.40;69.70;;;;;;4975165;28;20105;-59
2022/10/23 11:33:57;;;;;;;6.03;3.88;;;23.60;70.10;;;;;;4975083;28;20027;-59
2022/10/23 11:36:43;;;;;;;4.22;3.00;;;23.30;69.70;;;;;;4974699;28;20022;-60
2022/10/23 11:39:21;;;;;;;2.85;2.65;;;23.30;70.20;;;;;;4974597;28;20494;-59
2022/10/23 11:42:10;;;;;;;2.92;2.42;;;23.20;70.20;;;;;;4974902;28;20135;-74
2022/10/23 11:44:35;;;;;;;2.95;2.72;;;22.90;70.90;;;;;;4963517;28;20046;-74
2022/10/23 11:47:24;;;;;;;9.05;3.22;;;23.20;70.20;;;;;;4973447;28;20059;-75
2022/10/23 11:50:02;;;;;;;2.42;2.25;;;23.30;68.90;;;;;;4973781;28;20030;-74
2022/10/23 11:52:28;;;;;;;2.40;2.30;;;23.30;69.20;;;;;;4974570;28;20494;-75
2022/10/23 11:55:16;;;;;;;2.70;2.50;;;23.20;69.50;;;;;;4973588;28;20022;-74
2022/10/23 11:58:05;;;;;;;2.97;2.72;;;23.20;69.40;;;;;;4974604;28;20038;-74
2022/10/23 12:00:34;;;;;;;2.65;2.45;;;23.00;69.80;;;;;;4974428;28;20023;-74
2022/10/23 12:03:01;;;;;;;3.03;2.83;;;23.00;70.20;;;;;;4973831;28;20301;-74
2022/10/23 12:05:40;;;;;;;2.60;2.40;;;22.90;70.40;;;;;;4974119;28;20117;-74
2022/10/23 12:08:20;;;;;;;2.58;2.38;;;22.80;70.80;;;;;;4975294;28;20035;-59
2022/10/23 12:10:54;;;;;;;3.00;2.65;;;22.80;71.40;;;;;;4978429;28;20069;-59
2022/10/23 12:13:49;;;;;;;4.32;3.50;;;22.20;72.30;;;;;;4978583;28;20054;-59
2022/10/23 12:16:15;;;;;;;5.88;2.83;;;21.70;74.70;;;;;;4977843;28;20035;-61
2022/10/23 12:18:51;;;;;;;2.95;2.75;;;21.70;75.50;;;;;;4978434;28;20464;-60
2022/10/23 12:21:26;;;;;;;4.50;3.53;;;22.30;74.50;;;;;;4977142;28;20093;-60
2022/10/23 12:24:02;;;;;;;4.88;3.70;;;22.30;74.50;;;;;;4978496;28;20019;-60
2022/10/23 12:26:56;;;;;;;3.05;2.85;;;22.00;74.70;;;;;;4977176;28;20027;-61
2022/10/23 12:29:40;;;;;;;2.80;2.60;;;20.90;77.60;;;;;;4978497;28;20391;-60
2022/10/23 12:32:26;;;;;;;3.78;3.47;;;20.10;81.30;;;;;;4976911;28;20101;-58
2022/10/23 12:35:13;;;;;;;3.53;3.10;;;19.10;85.40;;;;;;4977722;28;20038;-59
2022/10/23 12:38:00;;;;;;;3.33;3.03;;;18.70;89.80;;;;;;4978300;28;20034;-59
2022/10/23 12:40:29;;;;;;;4.43;2.90;;;18.60;91.30;;;;;;4978287;28;20455;-59
2022/10/23 12:42:57;;;;;;;3.42;3.13;;;18.60;91.80;;;;;;4976397;28;20035;-59
2022/10/23 12:45:30;;;;;;;3.78;3.40;;;18.50;92.90;;;;;;4976352;28;20094;-59
2022/10/23 12:47:56;;;;;;;3.90;3.35;;;18.50;93.40;;;;;;4977915;28;20117;-59
2022/10/23 12:50:31;;;;;;;3.67;3.38;;;18.30;94.50;;;;;;4977931;28;20501;-59
2022/10/23 12:53:05;;;;;;;3.20;3.00;;;18.30;95.40;;;;;;4978329;28;20034;-77
2022/10/23 12:55:47;;;;;;;3.10;2.80;;;18.70;95.20;;;;;;4976581;28;20105;-63
2022/10/23 12:58:23;;;;;;;6.03;3.10;;;19.10;94.30;;;;;;4977470;28;20466;-77
2022/10/23 13:00:51;;;;;;;4.15;3.40;;;19.20;94.20;;;;;;4977661;28;20027;-77
2022/10/23 13:03:21;;;;;;;6.13;3.27;;;19.30;94.10;;;;;;4977400;28;20078;-77
2022/10/23 13:05:51;;;;;;;3.70;3.40;;;18.80;95.10;;;;;;4976694;28;20058;-77
2022/10/23 13:08:18;;;;;;;4.45;3.78;;;18.50;96.10;;;;;;4976611;28;20027;-77
2022/10/23 13:10:45;;;;;;;4.10;3.67;;;18.20;97.90;;;;;;4977207;28;20043;-77
2022/10/23 13:13:12;;;;;;;4.38;3.47;;;18.20;99.00;;;;;;4976165;28;20027;-76
2022/10/23 13:15:43;;;;;;;3.50;3.20;;;18.10;99.60;;;;;;4977530;28;20042;-77
2022/10/23 13:18:12;;;;;;;5.03;3.85;;;17.70;99.90;;;;;;4975897;28;20092;-77
2022/10/23 13:20:43;;;;;;;5.50;3.85;;;17.50;99.90;;;;;;4976040;28;20023;-76
2022/10/23 13:23:14;;;;;;;3.65;3.35;;;17.60;99.90;;;;;;4975784;28;20038;-77
2022/10/23 13:25:41;;;;;;;5.90;3.75;;;18.00;99.90;;;;;;4976117;28;20030;-76
2022/10/23 13:28:07;;;;;;;4.40;3.50;;;18.50;99.90;;;;;;4976875;28;20062;-76
2022/10/23 13:30:41;;;;;;;6.40;3.55;;;19.20;99.90;;;;;;4977854;28;20062;-76
2022/10/23 13:33:30;;;;;;;4.15;3.13;;;19.60;99.40;;;;;;4975652;28;20054;-76
2022/10/23 13:36:01;;;;;;;4.18;3.40;;;20.40;97.40;;;;;;4977435;28;20062;-76
2022/10/23 13:38:29;;;;;;;4.10;3.70;;;21.00;95.40;;;;;;4974999;28;20483;-77
2022/10/23 13:40:57;;;;;;;4.18;3.78;;;21.20;94.50;;;;;;4975744;28;20479;-77
2022/10/23 13:43:24;;;;;;;4.47;4.07;;;21.20;94.00;;;;;;4975641;28;20066;-77
2022/10/23 13:45:50;;;;;;;4.95;4.55;;;21.60;93.20;;;;;;4975634;28;20055;-76
2022/10/23 13:48:17;;;;;;;5.10;4.60;;;21.40;92.70;;;;;;4976902;28;20058;-77
2022/10/23 13:50:43;;;;;;;5.35;4.85;;;21.10;93.10;;;;;;4976856;28;20030;-76
2022/10/23 13:53:12;;;;;;;8.50;5.00;;;20.70;93.60;;;;;;4975199;28;20033;-76
2022/10/23 13:55:40;;;;;;;5.55;5.05;;;20.30;94.50;;;;;;4975553;28;20078;-76